createdAt,value
2018-10-19T00:01:21.080Z,5.97
2018-10-19T00:03:49.678Z,7.73
2018-10-19T00:06:18.370Z,8.03
2018-10-19T00:08:47.159Z,9.03
2018-10-19T00:11:17.160Z,8.03
2018-10-19T00:13:45.825Z,7.47
2018-10-19T00:16:14.498Z,5.43
2018-10-19T00:18:43.227Z,6.60
2018-10-19T00:21:12.684Z,6.67
2018-10-19T00:23:41.187Z,10.40
2018-10-19T00:26:09.804Z,6.33
2018-10-19T00:28:38.456Z,9.80
2018-10-19T00:31:07.120Z,5.57
2018-10-19T00:33:35.833Z,5.73
2018-10-19T00:36:04.741Z,9.47
2018-10-19T00:38:33.429Z,9.57
2018-10-19T00:41:02.150Z,8.90
2018-10-19T00:43:31.490Z,6.67
2018-10-19T00:46:00.152Z,6.43
2018-10-19T00:48:28.871Z,3.63
2018-10-19T00:50:58.424Z,7.10
2018-10-19T00:53:27.137Z,6.90
2018-10-19T00:55:55.849Z,8.40
2018-10-19T00:58:24.496Z,5.77
2018-10-19T01:00:53.152Z,6.80
2018-10-19T01:03:21.786Z,6.27
2018-10-19T01:05:50.438Z,6.93
2018-10-19T01:08:18.996Z,8.83
2018-10-19T01:10:47.729Z,8.37
2018-10-19T01:13:16.478Z,10.77
2018-10-19T01:15:45.068Z,11.83
2018-10-19T01:18:13.652Z,8.27
2018-10-19T01:20:43.482Z,9.90
2018-10-19T01:23:12.144Z,6.83
2018-10-19T01:25:41.550Z,10.63
2018-10-19T01:28:10.561Z,6.53
2018-10-19T01:30:39.288Z,10.00
2018-10-19T01:33:08.337Z,5.77
2018-10-19T01:35:36.929Z,8.17
2018-10-19T01:38:05.717Z,12.63
2018-10-19T01:40:34.316Z,5.23
2018-10-19T01:43:03.140Z,8.23
2018-10-19T01:45:31.787Z,5.93
2018-10-19T01:48:00.472Z,8.57
2018-10-19T01:50:29.176Z,6.33
2018-10-19T01:52:57.801Z,4.90
2018-10-19T01:55:26.427Z,7.50
2018-10-19T01:57:55.145Z,7.60
2018-10-19T02:00:23.874Z,9.63
2018-10-19T02:02:52.602Z,5.80
2018-10-19T02:05:21.203Z,9.10
2018-10-19T02:07:49.860Z,7.87
2018-10-19T02:10:18.489Z,5.17
2018-10-19T02:12:47.172Z,6.73
2018-10-19T02:15:15.799Z,9.37
2018-10-19T02:17:44.421Z,12.07
2018-10-19T02:20:13.439Z,5.90
2018-10-19T02:22:42.124Z,9.00
2018-10-19T02:25:10.729Z,7.43
2018-10-19T02:27:39.389Z,8.07
2018-10-19T02:30:08.156Z,10.10
2018-10-19T02:32:36.985Z,8.13
2018-10-19T02:35:05.821Z,6.17
2018-10-19T02:37:34.596Z,6.03
2018-10-19T02:40:03.234Z,8.77
2018-10-19T02:42:31.875Z,10.27
2018-10-19T02:45:00.586Z,7.63
2018-10-19T02:47:29.155Z,10.23
2018-10-19T02:49:57.808Z,6.83
2018-10-19T02:52:26.571Z,7.73
2018-10-19T02:54:55.231Z,7.50
2018-10-19T02:57:23.855Z,11.07
2018-10-19T02:59:53.221Z,10.23
2018-10-19T03:02:21.758Z,10.80
2018-10-19T03:04:50.293Z,10.53
2018-10-19T03:07:18.843Z,11.60
2018-10-19T03:09:47.392Z,6.00
2018-10-19T03:12:16.021Z,8.87
2018-10-19T03:14:44.590Z,10.63
2018-10-19T03:17:13.315Z,7.90
2018-10-19T03:19:41.811Z,6.57
2018-10-19T03:22:10.545Z,9.87
2018-10-19T03:24:39.171Z,9.57
2018-10-19T03:27:08.430Z,8.73
2018-10-19T03:29:36.951Z,8.17
2018-10-19T03:32:05.492Z,11.23
2018-10-19T03:34:34.091Z,10.83
2018-10-19T03:37:02.695Z,10.90
2018-10-19T03:39:31.315Z,9.37
2018-10-19T03:42:00.033Z,10.87
2018-10-19T03:44:28.751Z,11.97
2018-10-19T03:46:57.489Z,7.97
2018-10-19T03:49:26.104Z,12.90
2018-10-19T03:51:54.890Z,8.93
2018-10-19T03:54:23.453Z,8.70
2018-10-19T03:56:52.114Z,8.17
2018-10-19T03:59:20.749Z,8.70
2018-10-19T04:01:49.335Z,7.87
2018-10-19T04:04:18.284Z,6.73
2018-10-19T04:06:47.656Z,10.03
2018-10-19T04:09:16.296Z,8.80
2018-10-19T04:11:44.932Z,11.27
2018-10-19T04:14:14.429Z,7.23
2018-10-19T04:16:43.060Z,9.80
2018-10-19T04:19:11.680Z,5.93
2018-10-19T04:21:40.452Z,8.70
2018-10-19T04:24:09.131Z,5.50
2018-10-19T04:26:37.658Z,9.43
2018-10-19T04:29:06.638Z,6.20
2018-10-19T04:31:35.277Z,8.37
2018-10-19T04:34:03.955Z,11.80
2018-10-19T04:36:32.634Z,12.43
2018-10-19T04:39:01.364Z,9.07
2018-10-19T04:41:30.155Z,10.07
2018-10-19T04:43:58.891Z,8.87
2018-10-19T04:46:27.629Z,12.67
2018-10-19T04:48:56.283Z,9.77
2018-10-19T04:51:25.048Z,12.37
2018-10-19T04:53:54.705Z,8.30
2018-10-19T04:56:23.316Z,5.60
2018-10-19T04:58:52.051Z,7.50
2018-10-19T05:01:20.751Z,7.10
2018-10-19T05:03:50.560Z,5.63
2018-10-19T05:06:19.217Z,8.00
2018-10-19T05:08:47.801Z,6.70
2018-10-19T05:11:16.525Z,11.53
2018-10-19T05:13:45.012Z,10.73
2018-10-19T05:16:13.578Z,7.40
2018-10-19T05:18:42.131Z,7.90
2018-10-19T05:21:10.739Z,16.93
2018-10-19T05:23:39.341Z,8.73
2018-10-19T05:26:07.938Z,8.60
2018-10-19T05:28:36.544Z,5.13
2018-10-19T05:31:05.247Z,12.00
2018-10-19T05:33:33.897Z,7.70
2018-10-19T05:36:02.603Z,10.60
2018-10-19T05:38:31.176Z,9.17
2018-10-19T05:40:59.810Z,10.10
2018-10-19T05:43:28.428Z,5.57
2018-10-19T05:45:57.836Z,8.37
2018-10-19T05:48:26.419Z,7.13
2018-10-19T05:50:55.152Z,8.30
2018-10-19T05:53:23.841Z,10.33
2018-10-19T05:55:53.070Z,6.10
2018-10-19T05:58:21.633Z,13.27
2018-10-19T06:00:50.429Z,9.00
2018-10-19T06:03:19.059Z,8.73
2018-10-19T06:05:47.693Z,6.63
2018-10-19T06:08:16.976Z,7.83
2018-10-19T06:10:45.816Z,11.47
2018-10-19T06:13:14.457Z,10.07
2018-10-19T06:15:43.048Z,10.63
2018-10-19T06:18:11.623Z,10.83
2018-10-19T06:20:40.358Z,8.47
2018-10-19T06:23:09.666Z,12.43
2018-10-19T06:25:38.634Z,7.93
2018-10-19T06:28:07.286Z,6.77
2018-10-19T06:30:35.995Z,10.47
2018-10-19T06:33:06.352Z,7.93
2018-10-19T06:35:34.974Z,7.07
2018-10-19T06:38:04.912Z,8.00
2018-10-19T06:40:33.513Z,8.73
2018-10-19T06:43:03.258Z,9.47
2018-10-19T06:45:31.876Z,9.13
2018-10-19T06:48:00.588Z,14.53
2018-10-19T06:50:29.301Z,10.87
2018-10-19T06:52:57.970Z,11.93
2018-10-19T06:55:27.229Z,6.20
2018-10-19T06:57:56.011Z,9.13
2018-10-19T07:00:24.859Z,10.30
2018-10-19T07:02:53.821Z,9.40
2018-10-19T07:05:23.084Z,9.33
2018-10-19T07:07:51.777Z,11.43
2018-10-19T07:10:20.348Z,9.10
2018-10-19T07:12:49.642Z,8.70
2018-10-19T07:15:18.227Z,7.27
2018-10-19T07:17:46.828Z,9.50
2018-10-19T07:20:15.495Z,8.93
2018-10-19T07:22:44.809Z,6.67
2018-10-19T07:25:14.225Z,8.13
2018-10-19T07:27:43.014Z,8.63
2018-10-19T07:30:11.692Z,11.13
2018-10-19T07:32:40.390Z,5.47
2018-10-19T07:35:09.055Z,10.50
2018-10-19T07:37:37.655Z,9.57
2018-10-19T07:40:06.712Z,10.37
2018-10-19T07:42:36.708Z,9.37
2018-10-19T07:45:06.264Z,8.33
2018-10-19T07:47:35.524Z,6.63
2018-10-19T07:50:04.505Z,11.97
2018-10-19T07:52:33.236Z,17.43
2018-10-19T07:55:01.813Z,12.80
2018-10-19T07:57:31.957Z,11.23
2018-10-19T08:00:00.655Z,7.37
2018-10-19T08:02:30.508Z,11.23
2018-10-19T08:04:59.097Z,8.80
2018-10-19T08:07:27.896Z,6.93
2018-10-19T08:09:56.739Z,10.80
2018-10-19T08:12:25.503Z,7.67
2018-10-19T08:14:54.336Z,10.67
2018-10-19T08:17:23.150Z,8.60
2018-10-19T08:19:51.716Z,11.40
2018-10-19T08:22:20.458Z,12.53
2018-10-19T08:24:50.452Z,10.63
2018-10-19T08:27:19.172Z,9.30
2018-10-19T08:29:47.825Z,8.37
2018-10-19T08:32:16.539Z,11.57
2018-10-19T08:34:45.120Z,8.00
2018-10-19T08:37:13.829Z,9.80
2018-10-19T08:39:42.432Z,11.50
2018-10-19T08:42:11.153Z,10.73
2018-10-19T08:44:39.719Z,10.87
2018-10-19T08:47:08.348Z,11.60
2018-10-19T08:49:36.954Z,10.97
2018-10-19T08:52:05.739Z,14.83
2018-10-19T08:54:34.304Z,13.57
2018-10-19T08:57:02.868Z,11.07
2018-10-19T08:59:31.561Z,12.07
2018-10-19T09:02:00.191Z,14.17
2018-10-19T09:04:28.971Z,11.73
2018-10-19T09:06:57.664Z,12.10
2018-10-19T09:09:26.332Z,8.80
2018-10-19T09:11:55.116Z,12.83
2018-10-19T09:14:35.119Z,11.40
2018-10-19T09:17:03.755Z,20.77
2018-10-19T09:19:32.342Z,16.93
2018-10-19T09:22:00.995Z,11.37
2018-10-19T09:24:30.419Z,12.97
2018-10-19T09:26:59.068Z,10.23
2018-10-19T09:29:27.823Z,11.60
2018-10-19T09:31:56.611Z,11.53
2018-10-19T09:34:25.218Z,8.67
2018-10-19T09:36:53.951Z,11.67
2018-10-19T09:39:22.544Z,15.70
2018-10-19T09:41:51.154Z,8.10
2018-10-19T09:44:19.896Z,16.00
2018-10-19T09:46:48.491Z,19.23
2018-10-19T09:49:17.858Z,12.47
2018-10-19T09:51:46.475Z,20.00
2018-10-19T09:54:15.162Z,16.03
2018-10-19T09:56:43.778Z,14.60
2018-10-19T09:59:12.387Z,14.47
2018-10-19T10:01:41.723Z,13.23
2018-10-19T10:04:10.351Z,16.70
2018-10-19T10:06:39.128Z,10.43
2018-10-19T10:09:10.710Z,14.90
2018-10-19T10:11:39.303Z,12.10
2018-10-19T10:14:07.999Z,13.43
2018-10-19T10:16:36.772Z,13.60
2018-10-19T10:19:05.889Z,13.50
2018-10-19T10:21:34.584Z,12.53
2018-10-19T10:24:03.190Z,12.97
2018-10-19T10:26:31.891Z,12.23
2018-10-19T10:29:00.562Z,13.57
2018-10-19T10:31:29.354Z,10.03
2018-10-19T10:33:58.927Z,11.77
2018-10-19T10:36:28.550Z,9.03
2018-10-19T10:38:57.161Z,10.87
2018-10-19T10:41:25.918Z,16.60
2018-10-19T10:43:54.610Z,12.00
2018-10-19T10:46:23.342Z,10.30
2018-10-19T10:48:51.982Z,13.53
2018-10-19T10:51:20.689Z,13.27
2018-10-19T10:53:49.250Z,13.97
2018-10-19T10:56:18.005Z,15.00
2018-10-19T10:58:46.617Z,12.30
2018-10-19T11:01:15.751Z,12.80
2018-10-19T11:03:45.167Z,15.93
2018-10-19T11:06:13.884Z,14.07
2018-10-19T11:08:42.517Z,13.90
2018-10-19T11:11:13.798Z,9.33
2018-10-19T11:13:43.399Z,12.47
2018-10-19T11:16:13.149Z,11.57
2018-10-19T11:18:41.920Z,13.00
2018-10-19T11:21:10.611Z,15.20
2018-10-19T11:23:39.136Z,12.77
2018-10-19T11:26:09.272Z,12.47
2018-10-19T11:28:37.902Z,10.87
2018-10-19T11:31:06.629Z,13.27
2018-10-19T11:33:35.202Z,13.63
2018-10-19T11:36:03.758Z,14.90
2018-10-19T11:38:32.497Z,15.20
2018-10-19T11:41:01.182Z,12.30
2018-10-19T11:43:30.018Z,14.13
2018-10-19T11:45:58.768Z,10.77
2018-10-19T11:48:28.264Z,8.93
2018-10-19T11:50:57.166Z,11.07
2018-10-19T11:53:25.775Z,11.50
2018-10-19T11:55:54.328Z,13.40
2018-10-19T11:58:23.079Z,8.67
2018-10-19T12:00:51.954Z,11.03
2018-10-19T12:03:20.577Z,13.83
2018-10-19T12:05:49.545Z,11.73
2018-10-19T12:08:18.116Z,10.67
2018-10-19T12:10:46.927Z,11.77
2018-10-19T12:13:15.514Z,9.97
2018-10-19T12:15:44.676Z,10.83
2018-10-19T12:18:13.262Z,13.60
2018-10-19T12:20:42.002Z,12.10
2018-10-19T12:23:10.732Z,11.27
2018-10-19T12:25:39.291Z,9.97
2018-10-19T12:28:08.006Z,11.40
2018-10-19T12:30:36.614Z,14.47
2018-10-19T12:33:05.343Z,9.97
2018-10-19T12:35:34.022Z,10.83
2018-10-19T12:38:02.647Z,13.23
2018-10-19T12:40:31.312Z,13.60
2018-10-19T12:43:00.849Z,12.27
2018-10-19T12:46:39.402Z,11.73
2018-10-19T12:49:08.523Z,10.80
2018-10-19T12:51:38.308Z,13.57
2018-10-19T12:54:07.172Z,11.53
2018-10-19T12:56:35.709Z,10.80
2018-10-19T12:59:04.593Z,9.97
2018-10-19T13:01:34.221Z,10.00
2018-10-19T13:04:03.365Z,7.23
2018-10-19T13:06:32.665Z,12.40
2018-10-19T13:09:01.296Z,8.80
2018-10-19T13:11:30.065Z,10.80
2018-10-19T13:13:58.692Z,12.00
2018-10-19T13:16:27.352Z,12.27
2018-10-19T13:18:56.031Z,13.60
2018-10-19T13:21:24.656Z,10.07
2018-10-19T13:23:53.399Z,8.20
2018-10-19T13:26:22.045Z,11.43
2018-10-19T13:28:50.736Z,12.77
2018-10-19T13:31:20.461Z,9.40
2018-10-19T13:33:49.145Z,10.53
2018-10-19T13:36:17.673Z,9.17
2018-10-19T13:38:46.287Z,9.10
2018-10-19T13:41:14.992Z,9.67
2018-10-19T13:43:44.007Z,8.87
2018-10-19T13:46:12.668Z,13.07
2018-10-19T13:48:41.246Z,7.93
2018-10-19T13:51:09.923Z,8.70
2018-10-19T13:53:38.663Z,10.67
2018-10-19T13:56:08.595Z,9.43
2018-10-19T13:58:37.264Z,9.03
2018-10-19T14:01:07.581Z,9.80
2018-10-19T14:03:36.399Z,9.13
2018-10-19T14:06:05.190Z,8.43
2018-10-19T14:08:33.828Z,7.90
2018-10-19T14:11:02.855Z,8.53
2018-10-19T14:13:32.382Z,9.30
2018-10-19T14:16:01.165Z,9.67
2018-10-19T14:18:30.058Z,8.43
2018-10-19T14:20:59.079Z,7.00
2018-10-19T14:23:27.834Z,10.77
2018-10-19T14:25:57.513Z,7.90
2018-10-19T14:28:26.358Z,11.63
2018-10-19T14:30:55.680Z,10.73
2018-10-19T14:33:25.224Z,11.43
2018-10-19T14:35:53.932Z,8.67
2018-10-19T14:38:22.556Z,10.10
2018-10-19T14:40:52.450Z,9.60
2018-10-19T14:43:21.048Z,10.33
2018-10-19T14:45:49.628Z,12.67
2018-10-19T14:48:18.396Z,9.93
2018-10-19T14:50:47.099Z,12.93
2018-10-19T14:53:15.840Z,10.37
2018-10-19T14:55:44.556Z,8.70
2018-10-19T14:58:13.310Z,40.97
2018-10-19T15:00:41.937Z,8.90
2018-10-19T15:03:10.671Z,11.83
2018-10-19T15:05:39.268Z,12.83
2018-10-19T15:08:08.000Z,10.13
2018-10-19T15:10:36.832Z,11.50
2018-10-19T15:13:05.461Z,10.53
2018-10-19T15:15:34.146Z,9.73
2018-10-19T15:18:02.762Z,11.53
2018-10-19T15:20:31.434Z,13.13
2018-10-19T15:23:00.116Z,9.03
2018-10-19T15:25:28.771Z,13.47
2018-10-19T15:27:58.194Z,13.03
2018-10-19T15:30:27.799Z,11.43
2018-10-19T15:32:56.457Z,11.20
2018-10-19T15:35:24.974Z,9.90
2018-10-19T15:37:53.547Z,8.57
2018-10-19T15:40:22.221Z,11.77
2018-10-19T15:42:50.935Z,13.73
2018-10-19T15:45:19.721Z,9.87
2018-10-19T15:47:48.696Z,11.70
2018-10-19T15:50:17.258Z,9.67
2018-10-19T15:52:45.986Z,14.10
2018-10-19T15:55:14.600Z,14.10
2018-10-19T15:57:43.991Z,9.20
2018-10-19T16:00:12.586Z,14.03
2018-10-19T16:02:41.915Z,13.00
2018-10-19T16:05:10.747Z,10.97
2018-10-19T16:07:39.259Z,14.23
2018-10-19T16:10:08.197Z,12.60
2018-10-19T16:12:36.925Z,10.73
2018-10-19T16:15:07.984Z,11.13
2018-10-19T16:17:36.714Z,12.23
2018-10-19T16:20:06.938Z,12.77
2018-10-19T16:22:35.596Z,9.53
2018-10-19T16:25:04.432Z,10.07
2018-10-19T16:27:33.162Z,10.40
2018-10-19T16:30:02.772Z,12.50
2018-10-19T16:32:31.302Z,10.17
2018-10-19T16:34:59.904Z,11.97
2018-10-19T16:37:28.552Z,12.13
2018-10-19T16:39:57.431Z,12.37
2018-10-19T16:42:26.245Z,13.80
2018-10-19T16:44:54.930Z,12.60
2018-10-19T16:47:24.417Z,10.70
2018-10-19T16:49:53.152Z,12.23
2018-10-19T16:52:21.971Z,14.93
2018-10-19T16:54:50.535Z,10.47
2018-10-19T16:57:19.136Z,11.17
2018-10-19T16:59:47.915Z,17.83
2018-10-19T17:02:16.543Z,10.07
2018-10-19T17:04:45.198Z,10.17
2018-10-19T17:07:13.954Z,12.13
2018-10-19T17:09:42.634Z,12.67
2018-10-19T17:12:11.376Z,10.93
2018-10-19T17:14:40.078Z,11.50
2018-10-19T17:17:08.898Z,11.57
2018-10-19T17:19:37.464Z,12.70
2018-10-19T17:22:06.386Z,11.37
2018-10-19T17:24:35.078Z,13.13
2018-10-19T17:27:03.864Z,12.23
2018-10-19T17:29:32.651Z,10.77
2018-10-19T17:32:01.414Z,13.10
2018-10-19T17:34:30.190Z,14.43
2018-10-19T17:36:58.981Z,14.73
2018-10-19T17:39:27.757Z,13.73
2018-10-19T17:41:56.491Z,11.63
2018-10-19T17:44:25.208Z,9.17
2018-10-19T17:46:53.875Z,12.40
2018-10-19T17:49:22.422Z,12.30
2018-10-19T17:51:52.300Z,10.57
2018-10-19T17:54:20.930Z,13.67
2018-10-19T17:56:49.911Z,13.13
2018-10-19T17:59:18.668Z,14.10
2018-10-19T18:01:47.523Z,13.83
2018-10-19T18:04:17.208Z,14.30
2018-10-19T18:06:45.891Z,14.87
2018-10-19T18:09:14.874Z,14.03
2018-10-19T18:11:44.531Z,13.00
2018-10-19T18:14:13.282Z,13.47
2018-10-19T18:16:42.014Z,12.47
2018-10-19T18:19:10.840Z,13.57
2018-10-19T18:21:40.664Z,9.10
2018-10-19T18:24:09.973Z,15.00
2018-10-19T18:26:38.873Z,15.33
2018-10-19T18:29:07.837Z,14.50
2018-10-19T18:31:36.707Z,16.03
2018-10-19T18:34:06.314Z,12.53
2018-10-19T18:36:35.288Z,13.73
2018-10-19T18:39:05.440Z,13.87
2018-10-19T18:41:35.304Z,17.27
2018-10-19T18:44:04.271Z,15.27
2018-10-19T18:46:34.663Z,11.30
2018-10-19T18:49:03.548Z,16.50
2018-10-19T18:51:32.365Z,11.83
2018-10-19T18:54:01.187Z,14.40
2018-10-19T18:56:31.817Z,15.10
2018-10-19T18:59:01.812Z,18.70
2018-10-19T19:01:30.992Z,15.60
2018-10-19T19:04:00.202Z,15.03
2018-10-19T19:06:29.034Z,17.20
2018-10-19T19:08:58.450Z,16.30
2018-10-19T19:11:27.372Z,18.00
2018-10-19T19:13:56.334Z,17.33
2018-10-19T19:16:29.426Z,18.83
2018-10-19T19:18:58.911Z,15.47
2018-10-19T19:21:27.739Z,15.50
2018-10-19T19:24:01.941Z,20.57
2018-10-19T19:26:32.251Z,15.43
2018-10-19T19:29:01.456Z,18.93
2018-10-19T19:31:30.378Z,15.73
2018-10-19T19:34:04.400Z,14.83
2018-10-19T19:36:33.354Z,16.67
2018-10-19T19:39:02.069Z,17.93
2018-10-19T19:41:37.134Z,16.37
2018-10-19T19:44:07.904Z,18.80
2018-10-19T19:46:36.528Z,18.97
2018-10-19T19:49:11.764Z,18.50
2018-10-19T19:51:40.701Z,18.97
2018-10-19T19:54:10.256Z,20.00
2018-10-19T19:56:39.108Z,22.07
2018-10-19T19:59:07.952Z,15.97
2018-10-19T20:01:36.736Z,20.87
2018-10-19T20:04:05.698Z,17.63
2018-10-19T20:06:34.442Z,15.67
2018-10-19T20:09:03.663Z,19.87
2018-10-19T20:11:34.780Z,19.00
2018-10-19T20:14:04.487Z,20.73
2018-10-19T20:16:33.127Z,18.63
2018-10-19T20:19:01.744Z,18.13
2018-10-19T20:21:30.453Z,20.50
2018-10-19T20:23:59.253Z,17.83
2018-10-19T20:26:28.238Z,18.17
2018-10-19T20:28:56.907Z,17.60
2018-10-19T20:31:25.601Z,20.10
2018-10-19T20:33:54.210Z,25.83
2018-10-19T20:36:22.779Z,17.97
2018-10-19T20:38:51.380Z,17.63
2018-10-19T20:41:20.798Z,20.97
2018-10-19T20:43:49.353Z,19.90
2018-10-19T20:46:18.047Z,19.60
2018-10-19T20:48:46.705Z,17.97
2018-10-19T20:51:15.368Z,21.17
2018-10-19T20:53:44.670Z,19.30
2018-10-19T20:56:13.262Z,19.83
2018-10-19T20:58:42.122Z,21.33
2018-10-19T21:01:10.844Z,20.43
2018-10-19T21:03:39.482Z,20.17
2018-10-19T21:06:08.128Z,19.30
2018-10-19T21:08:37.011Z,17.80
2018-10-19T21:11:06.798Z,18.93
2018-10-19T21:13:36.326Z,16.70
2018-10-19T21:16:05.558Z,23.13
2018-10-19T21:18:34.319Z,18.87
2018-10-19T21:21:04.301Z,22.13
2018-10-19T21:23:33.200Z,24.50
2018-10-19T21:26:02.698Z,22.73
2018-10-19T21:28:31.520Z,19.43
2018-10-19T21:31:01.538Z,18.77
2018-10-19T21:33:31.087Z,16.60
2018-10-19T21:36:01.266Z,21.63
2018-10-19T21:38:30.238Z,20.33
2018-10-19T21:41:00.208Z,18.60
2018-10-19T21:43:29.259Z,21.87
2018-10-19T21:45:58.013Z,19.13
2018-10-19T21:48:26.635Z,20.67
2018-10-19T21:50:55.540Z,19.47
2018-10-19T21:53:25.652Z,22.40
2018-10-19T21:55:54.318Z,19.50
2018-10-19T21:58:23.219Z,18.80
2018-10-19T22:00:52.818Z,22.07
2018-10-19T22:03:21.711Z,20.90
2018-10-19T22:05:50.311Z,20.97
2018-10-19T22:08:20.083Z,21.77
2018-10-19T22:10:49.076Z,20.60
2018-10-19T22:13:18.035Z,21.83
2018-10-19T22:15:46.993Z,23.97
2018-10-19T22:18:17.005Z,23.73
2018-10-19T22:20:46.075Z,22.07
2018-10-19T22:23:15.116Z,24.80
2018-10-19T22:25:44.018Z,22.60
2018-10-19T22:28:13.282Z,24.40
2018-10-19T22:30:42.164Z,23.83
2018-10-19T22:33:11.035Z,23.37
2018-10-19T22:35:39.914Z,24.17
2018-10-19T22:38:08.833Z,23.23
2018-10-19T22:40:37.837Z,19.80
2018-10-19T22:43:06.624Z,18.37
2018-10-19T22:45:38.375Z,22.27
2018-10-19T22:48:07.214Z,18.80
2018-10-19T22:50:35.867Z,20.23
2018-10-19T22:53:04.654Z,26.80
2018-10-19T22:55:33.280Z,23.60
2018-10-19T22:58:01.966Z,21.27
2018-10-19T23:00:30.760Z,24.03
2018-10-19T23:02:59.983Z,18.07
2018-10-19T23:05:28.749Z,21.53
2018-10-19T23:07:57.731Z,26.63
2018-10-19T23:10:26.449Z,23.47
2018-10-19T23:12:55.146Z,21.53
2018-10-19T23:15:23.759Z,23.63
2018-10-19T23:17:52.580Z,21.93
2018-10-19T23:20:21.233Z,21.70
2018-10-19T23:22:50.077Z,20.27
2018-10-19T23:25:19.368Z,19.70
2018-10-19T23:27:48.153Z,17.13
2018-10-19T23:30:16.793Z,18.73
2018-10-19T23:32:45.548Z,23.07
2018-10-19T23:35:14.328Z,23.23
2018-10-19T23:37:42.936Z,21.80
2018-10-19T23:40:12.501Z,21.20
2018-10-19T23:42:41.287Z,23.63
2018-10-19T23:45:10.361Z,24.07
2018-10-19T23:47:39.041Z,22.70
2018-10-19T23:50:08.725Z,21.80
2018-10-19T23:52:37.673Z,17.90
2018-10-19T23:55:06.334Z,21.47
2018-10-19T23:57:34.879Z,19.50
